createdAt,value
2018-09-06T00:00:57.935Z,35.50
2018-09-06T00:02:02.349Z,35.23
2018-09-06T00:03:06.952Z,37.80
2018-09-06T00:04:11.397Z,37.15
2018-09-06T00:05:15.909Z,38.73
2018-09-06T00:06:20.045Z,38.53
2018-09-06T00:07:24.476Z,34.10
2018-09-06T00:08:28.514Z,36.23
2018-09-06T00:09:32.587Z,36.30
2018-09-06T00:10:36.720Z,38.33
2018-09-06T00:11:41.415Z,37.95
2018-09-06T00:12:45.551Z,34.45
2018-09-06T00:13:50.263Z,35.73
2018-09-06T00:14:54.380Z,36.65
2018-09-06T00:15:58.436Z,34.98
2018-09-06T00:17:02.538Z,39.35
2018-09-06T00:18:06.906Z,36.45
2018-09-06T00:19:13.786Z,37.13
2018-09-06T00:20:17.934Z,38.30
2018-09-06T00:21:22.077Z,36.75
2018-09-06T00:22:26.550Z,36.20
2018-09-06T00:23:30.638Z,33.35
2018-09-06T00:24:34.844Z,34.15
2018-09-06T00:25:39.067Z,36.00
2018-09-06T00:26:44.521Z,32.95
2018-09-06T00:27:53.086Z,36.42
2018-09-06T00:28:57.827Z,36.20
2018-09-06T00:30:04.925Z,34.90
2018-09-06T00:31:10.948Z,33.38
2018-09-06T00:32:15.228Z,33.08
2018-09-06T00:33:20.526Z,35.58
2018-09-06T00:34:25.457Z,30.17
2018-09-06T00:35:31.032Z,35.35
2018-09-06T00:36:35.333Z,35.25
2018-09-06T00:37:40.501Z,35.25
2018-09-06T00:38:45.021Z,39.03
2018-09-06T00:39:49.573Z,36.13
2018-09-06T00:40:54.216Z,35.80
2018-09-06T00:41:59.035Z,34.00
2018-09-06T00:43:03.167Z,36.80
2018-09-06T00:44:07.715Z,36.15
2018-09-06T00:45:11.787Z,39.40
2018-09-06T00:46:16.551Z,36.65
2018-09-06T00:47:20.704Z,38.83
2018-09-06T00:48:24.807Z,37.80
2018-09-06T00:49:29.265Z,38.28
2018-09-06T00:50:37.375Z,38.63
2018-09-06T00:51:41.579Z,38.38
2018-09-06T00:52:47.116Z,34.67
2018-09-06T00:53:51.555Z,38.30
2018-09-06T00:54:55.848Z,38.20
2018-09-06T00:56:00.448Z,38.10
2018-09-06T00:57:04.753Z,37.20
2018-09-06T00:58:08.995Z,37.33
2018-09-06T00:59:13.316Z,37.83
2018-09-06T01:00:17.892Z,37.55
2018-09-06T01:01:22.296Z,36.88
2018-09-06T01:02:26.456Z,39.42
2018-09-06T01:03:30.897Z,38.35
2018-09-06T01:04:35.162Z,37.78
2018-09-06T01:05:39.771Z,35.85
2018-09-06T01:06:44.275Z,38.83
2018-09-06T01:07:48.652Z,37.17
2018-09-06T01:08:53.525Z,39.33
2018-09-06T01:09:57.879Z,40.88
2018-09-06T01:11:02.035Z,40.85
2018-09-06T01:12:06.930Z,40.95
2018-09-06T01:13:12.121Z,41.98
2018-09-06T01:14:17.205Z,36.48
2018-09-06T01:15:21.367Z,38.85
2018-09-06T01:16:27.323Z,40.65
2018-09-06T01:17:31.511Z,40.10
2018-09-06T01:18:36.381Z,39.88
2018-09-06T01:19:40.935Z,39.18
2018-09-06T01:20:45.060Z,37.98
2018-09-06T01:21:49.220Z,38.55
2018-09-06T01:22:53.825Z,39.45
2018-09-06T01:23:57.872Z,38.33
2018-09-06T01:25:02.329Z,39.05
2018-09-06T01:26:07.259Z,39.70
2018-09-06T01:27:11.820Z,35.70
2018-09-06T01:28:16.238Z,39.33
2018-09-06T01:29:20.393Z,37.05
2018-09-06T01:30:24.527Z,37.80
2018-09-06T01:31:29.202Z,41.30
2018-09-06T01:32:33.294Z,37.00
2018-09-06T01:33:37.462Z,39.10
2018-09-06T01:34:42.685Z,40.40
2018-09-06T01:35:52.634Z,41.15
2018-09-06T01:36:57.006Z,39.45
2018-09-06T01:38:01.421Z,40.78
2018-09-06T01:39:08.313Z,39.13
2018-09-06T01:40:12.730Z,39.80
2018-09-06T01:41:19.299Z,42.60
2018-09-06T01:42:23.394Z,38.63
2018-09-06T01:43:28.214Z,41.25
2018-09-06T01:44:32.344Z,38.90
2018-09-06T01:45:37.297Z,41.63
2018-09-06T01:46:41.355Z,42.48
2018-09-06T01:47:45.791Z,39.10
2018-09-06T01:48:49.929Z,40.83
2018-09-06T01:49:54.002Z,40.85
2018-09-06T01:50:58.351Z,36.35
2018-09-06T01:52:02.759Z,38.48
2018-09-06T01:53:06.992Z,40.55
2018-09-06T01:54:11.286Z,39.48
2018-09-06T01:55:15.686Z,35.40
2018-09-06T01:56:20.652Z,38.85
2018-09-06T01:57:25.195Z,37.58
2018-09-06T01:58:30.287Z,38.08
2018-09-06T01:59:37.485Z,38.80
2018-09-06T02:00:42.295Z,38.70
2018-09-06T02:01:46.453Z,38.75
2018-09-06T02:02:50.624Z,39.45
2018-09-06T02:03:55.228Z,39.73
2018-09-06T02:05:01.088Z,42.08
2018-09-06T02:06:06.946Z,44.33
2018-09-06T02:07:11.137Z,43.08
2018-09-06T02:08:15.341Z,42.30
2018-09-06T02:09:19.683Z,41.28
2018-09-06T02:10:24.073Z,42.10
2018-09-06T02:11:28.836Z,43.20
2018-09-06T02:12:33.379Z,41.45
2018-09-06T02:13:37.766Z,40.20
2018-09-06T02:14:42.174Z,43.45
2018-09-06T02:15:46.757Z,44.25
2018-09-06T02:16:51.481Z,41.83
2018-09-06T02:17:56.344Z,41.15
2018-09-06T02:19:00.560Z,41.23
2018-09-06T02:20:04.958Z,42.10
2018-09-06T02:21:09.492Z,44.08
2018-09-06T02:22:13.882Z,44.35
2018-09-06T02:23:18.964Z,41.68
2018-09-06T02:24:24.048Z,44.27
2018-09-06T02:25:28.505Z,42.23
2018-09-06T02:26:32.938Z,41.53
2018-09-06T02:27:37.772Z,44.10
2018-09-06T02:28:42.597Z,44.40
2018-09-06T02:29:47.479Z,42.13
2018-09-06T02:30:52.419Z,44.13
2018-09-06T02:31:57.039Z,43.55
2018-09-06T02:33:01.495Z,42.75
2018-09-06T02:34:06.011Z,46.30
2018-09-06T02:36:39.636Z,45.52
2018-09-06T02:37:43.819Z,43.33
2018-09-06T02:38:48.355Z,46.55
2018-09-06T02:39:52.748Z,44.20
2018-09-06T02:40:57.054Z,39.92
2018-09-06T02:42:01.819Z,41.28
2018-09-06T02:43:06.392Z,40.67
2018-09-06T02:44:10.658Z,42.62
2018-09-06T02:45:15.136Z,42.50
2018-09-06T02:46:19.396Z,44.70
2018-09-06T02:47:23.800Z,41.55
2018-09-06T02:48:33.483Z,44.40
2018-09-06T02:49:42.833Z,40.45
2018-09-06T02:50:52.511Z,45.10
2018-09-06T02:51:56.682Z,46.10
2018-09-06T02:53:01.002Z,44.53
2018-09-06T02:54:05.372Z,44.18
2018-09-06T02:55:10.006Z,46.05
2018-09-06T02:56:15.170Z,49.23
2018-09-06T02:57:19.469Z,45.10
2018-09-06T02:58:23.757Z,46.05
2018-09-06T02:59:28.327Z,47.80
2018-09-06T03:00:33.967Z,47.10
2018-09-06T03:01:39.787Z,46.35
2018-09-06T03:02:43.900Z,46.10
2018-09-06T03:03:49.236Z,44.70
2018-09-06T03:05:06.760Z,46.63
2018-09-06T03:06:11.491Z,49.80
2018-09-06T03:07:15.711Z,49.80
2018-09-06T03:08:21.672Z,48.20
2018-09-06T03:09:25.926Z,48.60
2018-09-06T03:10:41.437Z,47.58
2018-09-06T03:11:50.610Z,49.67
2018-09-06T03:12:54.788Z,45.38
2018-09-06T03:13:58.887Z,49.80
2018-09-06T03:15:03.310Z,48.73
2018-09-06T03:16:07.475Z,49.80
2018-09-06T03:17:11.578Z,51.23
2018-09-06T03:18:15.796Z,47.80
2018-09-06T03:19:19.930Z,44.90
2018-09-06T03:20:24.083Z,49.53
2018-09-06T03:21:28.525Z,49.40
2018-09-06T03:22:32.733Z,50.35
2018-09-06T03:23:37.452Z,49.55
2018-09-06T03:24:41.638Z,47.27
2018-09-06T03:25:45.753Z,46.90
2018-09-06T03:26:49.840Z,48.55
2018-09-06T03:27:54.248Z,49.60
2018-09-06T03:28:58.348Z,46.48
2018-09-06T03:30:02.590Z,47.03
2018-09-06T03:31:06.691Z,48.68
2018-09-06T03:32:10.760Z,49.18
2018-09-06T03:33:15.063Z,51.98
2018-09-06T03:34:19.556Z,53.90
2018-09-06T03:35:23.714Z,50.58
2018-09-06T03:36:29.244Z,50.80
2018-09-06T03:37:33.420Z,49.85
2018-09-06T03:38:37.535Z,47.95
2018-09-06T03:39:41.657Z,53.15
2018-09-06T03:40:46.079Z,53.98
2018-09-06T03:41:50.357Z,53.40
2018-09-06T03:42:54.644Z,53.23
2018-09-06T03:43:58.703Z,51.15
2018-09-06T03:45:02.823Z,51.28
2018-09-06T03:46:08.079Z,52.67
2018-09-06T03:47:12.194Z,50.15
2018-09-06T03:50:12.348Z,50.05
2018-09-06T03:51:16.534Z,52.30
2018-09-06T03:52:20.731Z,50.67
2018-09-06T03:53:25.162Z,48.70
2018-09-06T03:54:29.317Z,49.75
2018-09-06T03:55:33.458Z,51.00
2018-09-06T03:56:38.136Z,50.70
2018-09-06T03:57:42.687Z,49.38
2018-09-06T03:58:46.908Z,51.68
2018-09-06T03:59:51.298Z,52.10
2018-09-06T04:00:55.481Z,48.35
2018-09-06T04:01:59.855Z,50.12
2018-09-06T04:03:04.292Z,51.48
2018-09-06T04:04:08.998Z,51.60
2018-09-06T04:05:13.214Z,50.73
2018-09-06T04:06:17.368Z,49.15
2018-09-06T04:07:22.342Z,51.33
2018-09-06T04:08:27.187Z,50.92
2018-09-06T04:09:31.262Z,50.38
2018-09-06T04:10:36.420Z,50.55
2018-09-06T04:11:40.557Z,49.38
2018-09-06T04:12:44.722Z,50.10
2018-09-06T04:13:50.107Z,50.67
2018-09-06T04:14:54.237Z,48.98
2018-09-06T04:15:58.415Z,49.30
2018-09-06T04:17:02.699Z,49.13
2018-09-06T04:18:07.768Z,51.58
2018-09-06T04:19:12.186Z,53.38
2018-09-06T04:20:16.627Z,48.48
2018-09-06T04:21:20.795Z,51.20
2018-09-06T04:22:24.912Z,48.80
2018-09-06T04:23:29.147Z,49.20
2018-09-06T04:24:33.378Z,52.10
2018-09-06T04:25:37.520Z,48.87
2018-09-06T04:26:41.757Z,50.10
2018-09-06T04:27:46.071Z,51.85
2018-09-06T04:28:50.265Z,47.35
2018-09-06T04:29:54.711Z,52.08
2018-09-06T04:30:59.869Z,49.00
2018-09-06T04:32:05.685Z,47.48
2018-09-06T04:33:09.812Z,49.13
2018-09-06T04:34:13.944Z,47.83
2018-09-06T04:35:18.537Z,46.65
2018-09-06T04:36:22.796Z,46.13
2018-09-06T04:37:26.939Z,46.18
2018-09-06T04:38:31.721Z,46.92
2018-09-06T04:39:35.858Z,46.18
2018-09-06T04:40:39.982Z,44.42
2018-09-06T04:41:44.118Z,44.38
2018-09-06T04:42:48.218Z,43.30
2018-09-06T04:43:53.101Z,45.58
2018-09-06T04:44:57.316Z,45.95
2018-09-06T04:46:01.531Z,45.30
2018-09-06T04:47:07.560Z,45.75
2018-09-06T04:48:12.027Z,45.05
2018-09-06T04:49:16.164Z,45.00
2018-09-06T04:50:20.476Z,44.77
2018-09-06T04:51:24.626Z,46.83
2018-09-06T04:52:28.780Z,46.37
2018-09-06T04:53:33.553Z,45.78
2018-09-06T04:54:39.275Z,47.40
2018-09-06T04:56:10.646Z,46.68
2018-09-06T04:57:14.787Z,42.27
2018-09-06T04:58:18.974Z,42.30
2018-09-06T04:59:23.187Z,42.60
2018-09-06T05:00:27.811Z,39.40
2018-09-06T05:01:32.269Z,38.63
2018-09-06T05:02:36.527Z,37.33
2018-09-06T05:03:40.752Z,36.68
2018-09-06T05:04:44.960Z,37.20
2018-09-06T05:05:49.150Z,38.05
2018-09-06T05:06:53.647Z,33.20
2018-09-06T05:07:59.788Z,32.90
2018-09-06T05:09:05.349Z,31.33
2018-09-06T05:10:09.498Z,31.17
2018-09-06T05:11:13.915Z,29.37
2018-09-06T05:12:18.413Z,30.45
2018-09-06T05:13:23.186Z,29.75
2018-09-06T05:14:27.472Z,26.52
2018-09-06T05:15:31.863Z,24.95
2018-09-06T05:16:36.173Z,26.27
2018-09-06T05:17:40.680Z,26.60
2018-09-06T05:18:44.846Z,25.00
2018-09-06T05:19:49.336Z,25.97
2018-09-06T05:20:54.075Z,25.60
2018-09-06T05:21:58.324Z,24.45
2018-09-06T05:23:03.423Z,22.13
2018-09-06T05:24:07.890Z,23.25
2018-09-06T05:25:12.247Z,20.90
2018-09-06T05:26:18.349Z,23.60
2018-09-06T05:27:22.672Z,22.13
2018-09-06T05:28:27.871Z,20.17
2018-09-06T05:29:33.076Z,21.90
2018-09-06T05:30:37.507Z,20.37
2018-09-06T05:31:42.731Z,19.90
2018-09-06T05:32:47.212Z,19.45
2018-09-06T05:33:52.576Z,21.40
2018-09-06T05:35:00.364Z,20.45
2018-09-06T05:36:04.806Z,18.67
2018-09-06T05:37:10.697Z,19.75
2018-09-06T05:38:14.832Z,19.00
2018-09-06T05:39:19.382Z,20.90
2018-09-06T05:40:23.747Z,20.97
2018-09-06T05:41:28.158Z,20.45
2018-09-06T05:42:33.263Z,20.92
2018-09-06T05:43:40.828Z,22.20
2018-09-06T05:44:59.618Z,21.52
2018-09-06T05:46:03.845Z,19.62
2018-09-06T05:47:09.354Z,22.55
2018-09-06T05:48:16.555Z,22.42
2018-09-06T05:49:20.709Z,22.65
2018-09-06T05:50:25.642Z,22.35
2018-09-06T05:51:29.944Z,25.80
2018-09-06T05:52:34.176Z,24.92
2018-09-06T05:53:38.431Z,25.88
2018-09-06T05:54:42.814Z,26.25
2018-09-06T05:55:47.435Z,25.82
2018-09-06T05:56:51.644Z,26.75
2018-09-06T05:57:57.670Z,27.70
2018-09-06T05:59:01.945Z,28.60
2018-09-06T06:00:10.307Z,27.42
2018-09-06T06:01:14.529Z,30.48
2018-09-06T06:02:19.047Z,31.62
2018-09-06T06:03:24.137Z,30.30
2018-09-06T06:04:28.496Z,31.25
2018-09-06T06:05:32.849Z,31.35
2018-09-06T06:06:37.163Z,32.35
2018-09-06T06:07:52.414Z,35.45
2018-09-06T06:08:56.608Z,33.13
2018-09-06T06:10:00.706Z,34.70
2018-09-06T06:11:04.926Z,34.43
2018-09-06T06:12:09.260Z,34.67
2018-09-06T06:13:13.432Z,35.30
2018-09-06T06:14:17.893Z,34.18
2018-09-06T06:15:22.135Z,31.55
2018-09-06T06:16:26.523Z,34.43
2018-09-06T06:17:30.766Z,34.23
2018-09-06T06:18:35.097Z,34.18
2018-09-06T06:19:39.780Z,33.78
2018-09-06T06:20:44.435Z,34.35
2018-09-06T06:21:48.792Z,36.55
2018-09-06T06:22:53.953Z,36.65
2018-09-06T06:23:58.132Z,40.17
2018-09-06T06:25:03.025Z,35.75
2018-09-06T06:26:07.909Z,35.75
2018-09-06T06:27:12.672Z,35.30
2018-09-06T06:28:17.165Z,36.38
2018-09-06T06:29:21.356Z,36.83
2018-09-06T06:30:25.747Z,35.85
2018-09-06T06:31:31.352Z,37.13
2018-09-06T06:32:36.227Z,35.85
2018-09-06T06:33:40.635Z,35.45
2018-09-06T06:34:45.003Z,37.70
2018-09-06T06:35:49.292Z,37.98
2018-09-06T06:36:54.495Z,35.55
2018-09-06T06:38:01.708Z,37.15
2018-09-06T06:39:08.976Z,34.40
2018-09-06T06:40:13.142Z,35.45
2018-09-06T06:41:17.297Z,35.40
2018-09-06T06:42:23.760Z,36.13
2018-09-06T06:43:27.952Z,37.03
2018-09-06T06:44:32.064Z,36.68
2018-09-06T06:45:36.357Z,35.90
2018-09-06T06:46:40.518Z,37.65
2018-09-06T06:47:44.770Z,37.38
2018-09-06T06:48:48.914Z,36.90
2018-09-06T06:49:53.047Z,37.78
2018-09-06T06:50:57.209Z,37.42
2018-09-06T06:52:01.977Z,35.23
2018-09-06T06:53:06.258Z,36.83
2018-09-06T06:54:10.456Z,37.30
2018-09-06T06:55:15.592Z,36.90
2018-09-06T06:56:20.101Z,35.85
2018-09-06T06:57:24.266Z,36.73
2018-09-06T06:58:28.390Z,41.25
2018-09-06T06:59:32.655Z,44.18
2018-09-06T07:00:44.713Z,42.93
2018-09-06T07:01:49.007Z,43.35
2018-09-06T07:02:54.152Z,42.43
2018-09-06T07:03:58.303Z,45.28
2018-09-06T07:05:03.090Z,44.42
2018-09-06T07:06:09.627Z,46.35
2018-09-06T07:07:14.542Z,45.95
2018-09-06T07:08:19.293Z,42.30
2018-09-06T07:09:23.454Z,42.55
2018-09-06T07:10:28.737Z,43.85
2018-09-06T07:11:33.923Z,42.48
2018-09-06T07:12:38.424Z,43.48
2018-09-06T07:13:44.945Z,42.67
2018-09-06T07:14:49.806Z,44.23
2018-09-06T07:15:54.073Z,44.67
2018-09-06T07:16:58.561Z,45.23
2018-09-06T07:18:04.276Z,44.27
2018-09-06T07:19:09.655Z,46.85
2018-09-06T07:20:14.042Z,48.33
2018-09-06T07:21:19.772Z,48.98
2018-09-06T07:22:24.292Z,45.30
2018-09-06T07:23:29.115Z,43.85
2018-09-06T07:24:37.102Z,44.90
2018-09-06T07:25:41.852Z,44.60
2018-09-06T07:26:46.564Z,46.80
2018-09-06T07:27:51.464Z,46.50
2018-09-06T07:28:56.537Z,47.80
2018-09-06T07:30:01.617Z,46.80
2018-09-06T07:31:06.500Z,43.33
2018-09-06T07:32:11.328Z,48.13
2018-09-06T07:33:16.673Z,47.38
2018-09-06T07:34:21.080Z,45.85
2018-09-06T07:35:26.168Z,47.10
2018-09-06T07:36:31.764Z,45.67
2018-09-06T07:37:36.035Z,42.67
2018-09-06T07:38:40.421Z,44.42
2018-09-06T07:39:44.659Z,44.42
2018-09-06T07:40:49.288Z,46.10
2018-09-06T07:41:54.035Z,43.45
2018-09-06T07:42:58.376Z,44.23
2018-09-06T07:44:03.654Z,45.03
2018-09-06T07:45:08.978Z,44.90
2018-09-06T07:46:14.229Z,45.00
2018-09-06T07:47:18.682Z,46.00
2018-09-06T07:48:23.764Z,44.00
2018-09-06T07:49:28.689Z,42.25
2018-09-06T07:50:32.956Z,44.03
2018-09-06T07:51:37.181Z,46.00
2018-09-06T07:52:41.467Z,46.30
2018-09-06T07:53:46.309Z,45.67
2018-09-06T07:54:51.938Z,42.67
2018-09-06T07:55:56.087Z,42.45
2018-09-06T07:57:01.172Z,40.63
2018-09-06T07:58:05.389Z,44.83
2018-09-06T07:59:10.536Z,45.08
2018-09-06T08:00:15.431Z,47.93
2018-09-06T08:01:20.382Z,41.85
2018-09-06T08:02:24.776Z,42.93
2018-09-06T08:03:29.168Z,43.40
2018-09-06T08:04:34.751Z,42.13
2018-09-06T08:05:40.703Z,44.23
2018-09-06T08:06:45.217Z,43.17
2018-09-06T08:07:49.486Z,45.30
2018-09-06T08:08:53.994Z,43.87
2018-09-06T08:09:58.213Z,42.20
2018-09-06T08:11:02.393Z,40.95
2018-09-06T08:12:07.341Z,39.95
2018-09-06T08:13:14.424Z,41.13
2018-09-06T08:14:19.007Z,41.45
2018-09-06T08:15:23.486Z,42.70
2018-09-06T08:16:28.039Z,41.18
2018-09-06T08:17:32.394Z,43.68
2018-09-06T08:18:36.960Z,43.42
2018-09-06T08:19:41.347Z,43.30
2018-09-06T08:20:46.644Z,44.67
2018-09-06T08:21:50.843Z,45.00
2018-09-06T08:22:55.660Z,44.55
2018-09-06T08:24:01.273Z,42.73
2018-09-06T08:25:06.258Z,42.88
2018-09-06T08:26:11.381Z,43.85
2018-09-06T08:27:15.821Z,41.13
2018-09-06T08:28:21.024Z,45.10
2018-09-06T08:29:25.268Z,43.78
2018-09-06T08:30:30.328Z,42.08
2018-09-06T08:31:35.742Z,46.60
2018-09-06T08:32:40.546Z,46.20
2018-09-06T08:33:46.987Z,48.50
2018-09-06T08:34:52.032Z,47.43
2018-09-06T08:35:56.212Z,44.18
2018-09-06T08:37:00.830Z,47.95
2018-09-06T08:38:05.181Z,47.95
2018-09-06T08:39:11.864Z,46.77
2018-09-06T08:40:17.135Z,47.20
2018-09-06T08:41:21.865Z,48.00
2018-09-06T08:42:26.202Z,48.28
2018-09-06T08:43:30.368Z,49.40
2018-09-06T08:44:34.920Z,46.90
2018-09-06T08:45:40.455Z,47.40
2018-09-06T08:46:47.911Z,44.30
2018-09-06T08:47:55.707Z,44.67
2018-09-06T08:49:00.398Z,48.63
2018-09-06T08:50:05.196Z,46.08
2018-09-06T08:51:10.235Z,45.08
2018-09-06T08:52:14.765Z,44.73
2018-09-06T08:53:18.994Z,46.53
2018-09-06T08:54:24.293Z,43.20
2018-09-06T08:55:28.647Z,45.95
2018-09-06T08:56:33.617Z,43.38
2018-09-06T08:57:37.862Z,42.50
2018-09-06T08:58:43.446Z,43.38
2018-09-06T08:59:52.328Z,41.63
2018-09-06T09:01:05.292Z,38.73
2018-09-06T09:02:13.233Z,41.02
2018-09-06T09:03:18.111Z,39.98
2018-09-06T09:04:23.050Z,38.08
2018-09-06T09:05:28.173Z,34.38
2018-09-06T09:06:35.740Z,33.90
2018-09-06T09:07:40.203Z,31.05
2018-09-06T09:08:45.487Z,32.05
2018-09-06T09:09:50.519Z,30.92
2018-09-06T09:11:01.181Z,30.57
2018-09-06T09:12:06.288Z,31.25
2018-09-06T09:13:10.559Z,28.73
2018-09-06T09:14:14.869Z,30.05
2018-09-06T09:15:19.212Z,32.85
2018-09-06T09:16:23.571Z,30.90
2018-09-06T09:17:28.760Z,30.45
2018-09-06T09:18:34.197Z,27.70
2018-09-06T09:19:38.805Z,29.07
2018-09-06T09:20:44.727Z,26.02
2018-09-06T09:21:51.401Z,23.92
2018-09-06T09:22:57.342Z,25.62
2018-09-06T09:24:04.585Z,24.07
2018-09-06T09:25:09.393Z,24.10
2018-09-06T09:26:14.106Z,22.93
2018-09-06T09:27:20.906Z,22.85
2018-09-06T09:28:27.217Z,22.37
2018-09-06T09:29:31.729Z,22.73
2018-09-06T09:30:36.053Z,22.60
2018-09-06T09:31:44.560Z,23.02
2018-09-06T09:32:48.962Z,22.95
2018-09-06T09:33:53.973Z,21.37
2018-09-06T09:35:00.305Z,22.90
2018-09-06T09:36:05.898Z,22.15
2018-09-06T09:37:10.096Z,23.35
2018-09-06T09:38:14.339Z,22.87
2018-09-06T09:39:18.673Z,21.48
2018-09-06T09:40:23.351Z,23.35
2018-09-06T09:41:27.660Z,24.50
2018-09-06T09:42:31.984Z,24.57
2018-09-06T09:43:36.465Z,24.80
2018-09-06T09:44:40.603Z,25.68
2018-09-06T09:45:47.793Z,24.15
2018-09-06T09:49:16.415Z,24.67
2018-09-06T09:51:27.459Z,24.87
2018-09-06T09:52:32.211Z,23.32
2018-09-06T09:53:36.309Z,28.57
2018-09-06T09:54:42.243Z,23.65
2018-09-06T09:57:02.681Z,25.95
2018-09-06T09:58:08.342Z,26.82
2018-09-06T09:59:12.752Z,24.47
2018-09-06T10:00:24.835Z,27.25
2018-09-06T10:01:38.441Z,25.85
2018-09-06T10:02:49.319Z,25.80
2018-09-06T10:03:59.076Z,27.37
2018-09-06T10:05:09.672Z,27.07
2018-09-06T10:06:22.457Z,28.02
2018-09-06T10:07:31.744Z,29.00
2018-09-06T10:09:39.538Z,28.15
2018-09-06T10:10:44.684Z,30.90
2018-09-06T10:11:49.272Z,33.23
2018-09-06T10:12:53.850Z,32.78
2018-09-06T10:13:58.255Z,33.33
2018-09-06T10:15:03.786Z,33.35
2018-09-06T10:16:08.918Z,31.73
2018-09-06T10:17:14.347Z,32.67
2018-09-06T10:18:21.835Z,33.40
2018-09-06T10:19:26.381Z,35.58
2018-09-06T10:20:31.096Z,33.30
2018-09-06T10:21:38.100Z,32.85
2018-09-06T10:22:42.596Z,32.33
2018-09-06T10:23:48.086Z,31.55
2018-09-06T10:24:52.757Z,27.95
2018-09-06T10:26:00.185Z,31.62
2018-09-06T10:27:05.008Z,27.87
2018-09-06T10:28:12.343Z,29.63
2018-09-06T10:29:17.259Z,29.67
2018-09-06T10:30:22.364Z,31.10
2018-09-06T10:31:26.733Z,30.43
2018-09-06T10:32:31.401Z,32.15
2018-09-06T10:33:35.696Z,32.35
2018-09-06T10:34:46.260Z,33.40
2018-09-06T10:35:50.632Z,34.08
2018-09-06T10:36:56.766Z,33.42
2018-09-06T10:38:06.631Z,35.68
2018-09-06T10:39:12.169Z,36.15
2018-09-06T10:40:16.609Z,37.40
2018-09-06T10:41:21.840Z,35.88
2018-09-06T10:42:26.300Z,33.90
2018-09-06T10:43:32.102Z,34.10
2018-09-06T10:44:37.784Z,44.20
2018-09-06T10:45:42.209Z,40.48
2018-09-06T10:46:52.490Z,42.35
2018-09-06T10:47:58.837Z,42.65
2018-09-06T10:49:11.766Z,45.52
2018-09-06T10:50:20.471Z,45.35
2018-09-06T10:51:41.310Z,44.45
2018-09-06T10:52:47.375Z,45.90
2018-09-06T10:53:53.704Z,41.50
2018-09-06T10:54:58.877Z,43.30
2018-09-06T10:56:04.700Z,44.23
2018-09-06T10:57:12.036Z,45.10
2018-09-06T10:58:17.132Z,47.70
2018-09-06T10:59:22.288Z,45.90
2018-09-06T11:00:28.626Z,43.00
2018-09-06T11:01:33.747Z,43.05
2018-09-06T11:02:38.646Z,44.73
2018-09-06T11:03:43.367Z,41.58
2018-09-06T11:04:47.766Z,40.45
2018-09-06T11:05:53.564Z,41.88
2018-09-06T11:07:01.137Z,40.38
2018-09-06T11:08:15.062Z,39.15
2018-09-06T11:09:22.460Z,40.23
2018-09-06T11:10:32.446Z,42.00
2018-09-06T11:11:43.110Z,40.90
2018-09-06T11:12:54.457Z,39.95
2018-09-06T11:14:27.070Z,42.58
2018-09-06T11:15:32.483Z,42.70
2018-09-06T11:16:55.145Z,42.60
2018-09-06T11:18:14.669Z,43.92
2018-09-06T11:19:35.457Z,43.87
2018-09-06T11:20:54.475Z,44.65
2018-09-06T11:22:06.932Z,45.20
2018-09-06T11:23:23.970Z,50.15
2018-09-06T11:24:42.223Z,51.70
2018-09-06T11:26:11.633Z,47.85
2018-09-06T11:27:36.609Z,52.55
2018-09-06T11:28:59.738Z,50.00
2018-09-06T11:30:08.314Z,48.38
2018-09-06T11:31:13.292Z,54.50
2018-09-06T11:32:22.481Z,52.08
2018-09-06T11:33:29.737Z,48.87
2018-09-06T11:34:35.450Z,46.85
2018-09-06T11:35:42.424Z,48.92
2018-09-06T11:36:50.235Z,49.75
2018-09-06T11:38:00.426Z,52.03
2018-09-06T11:39:14.009Z,50.15
2018-09-06T11:40:30.400Z,50.60
2018-09-06T11:41:50.315Z,53.60
2018-09-06T11:44:47.003Z,51.35
2018-09-06T11:46:10.177Z,49.25
2018-09-06T11:47:26.108Z,46.77
2018-09-06T11:48:51.028Z,49.75
2018-09-06T11:49:55.702Z,46.85
2018-09-06T11:51:04.092Z,45.45
2018-09-06T11:52:11.349Z,45.10
2018-09-06T11:53:30.018Z,48.00
2018-09-06T11:54:37.578Z,43.75
2018-09-06T11:55:46.268Z,43.38
2018-09-06T11:56:50.979Z,47.27
2018-09-06T11:58:01.693Z,47.88
2018-09-06T11:59:06.954Z,44.27
2018-09-06T12:00:13.315Z,44.93
2018-09-06T12:01:17.627Z,45.67
2018-09-06T12:02:24.507Z,45.85
2018-09-06T12:03:34.261Z,46.13
2018-09-06T12:04:38.798Z,47.65
2018-09-06T12:05:43.795Z,44.75
2018-09-06T12:06:48.618Z,41.80
2018-09-06T12:07:53.168Z,44.95
2018-09-06T12:08:57.690Z,42.38
2018-09-06T12:10:03.113Z,40.40
2018-09-06T12:11:09.078Z,42.03
2018-09-06T12:12:13.808Z,40.35
2018-09-06T12:13:18.385Z,40.48
2018-09-06T12:14:24.431Z,49.25
2018-09-06T12:15:29.867Z,59.67
2018-09-06T12:16:36.632Z,47.17
2018-09-06T12:17:42.849Z,43.73
2018-09-06T12:18:50.653Z,41.45
2018-09-06T12:20:02.261Z,39.30
2018-09-06T12:21:07.526Z,34.78
2018-09-06T12:22:12.658Z,33.58
2018-09-06T12:23:20.968Z,34.00
2018-09-06T12:24:25.838Z,32.20
2018-09-06T12:25:33.720Z,32.45
2018-09-06T12:26:40.116Z,32.70
2018-09-06T12:27:51.268Z,33.78
2018-09-06T12:28:57.109Z,35.05
2018-09-06T12:30:02.408Z,33.33
2018-09-06T12:31:07.721Z,35.20
2018-09-06T12:32:13.069Z,35.58
2018-09-06T12:33:18.442Z,33.10
2018-09-06T12:34:23.441Z,35.50
2018-09-06T12:35:29.047Z,36.03
2018-09-06T12:36:35.548Z,36.65
2018-09-06T12:37:40.436Z,35.50
2018-09-06T12:38:49.001Z,37.10
2018-09-06T12:39:54.286Z,37.03
2018-09-06T12:40:59.005Z,34.58
2018-09-06T12:43:19.984Z,37.98
2018-09-06T12:44:25.685Z,42.08
2018-09-06T12:45:30.558Z,38.78
2018-09-06T12:46:35.230Z,38.65
2018-09-06T12:47:40.259Z,39.35
2018-09-06T12:48:45.739Z,38.95
2018-09-06T12:50:01.262Z,36.20
2018-09-06T12:51:26.602Z,38.00
2018-09-06T12:52:36.843Z,39.38
2018-09-06T12:53:51.568Z,41.05
2018-09-06T12:54:56.857Z,36.45
2018-09-06T12:56:04.810Z,39.50
2018-09-06T12:57:10.199Z,38.45
2018-09-06T12:58:20.534Z,36.80
2018-09-06T12:59:26.193Z,36.55
2018-09-06T13:00:32.765Z,36.45
2018-09-06T13:01:48.093Z,36.80
2018-09-06T13:03:06.751Z,36.42
2018-09-06T13:04:12.332Z,34.58
2018-09-06T13:05:26.218Z,36.90
2018-09-06T13:06:31.448Z,37.55
2018-09-06T13:07:50.239Z,37.75
2018-09-06T13:09:13.666Z,42.05
2018-09-06T13:10:20.451Z,40.85
2018-09-06T13:11:32.547Z,42.95
2018-09-06T13:12:39.065Z,42.45
2018-09-06T13:13:46.581Z,42.88
2018-09-06T13:14:52.308Z,44.42
2018-09-06T13:15:57.866Z,44.03
2018-09-06T13:17:02.524Z,44.48
2018-09-06T13:18:07.983Z,47.00
2018-09-06T13:19:12.282Z,45.85
2018-09-06T13:20:17.096Z,47.13
2018-09-06T13:21:29.333Z,44.95
2018-09-06T13:22:33.495Z,43.42
2018-09-06T13:23:38.262Z,44.55
2018-09-06T13:24:43.756Z,46.00
2018-09-06T13:25:48.072Z,45.65
2018-09-06T13:26:52.605Z,45.88
2018-09-06T13:27:57.863Z,46.85
2018-09-06T13:29:02.197Z,47.08
2018-09-06T13:30:07.355Z,46.55
2018-09-06T13:31:15.872Z,45.85
2018-09-06T13:33:40.107Z,45.20
2018-09-06T13:34:44.605Z,45.30
2018-09-06T13:35:52.180Z,44.33
2018-09-06T13:36:57.172Z,45.67
2018-09-06T13:38:01.527Z,46.10
2018-09-06T13:39:08.504Z,46.85
2018-09-06T13:40:14.268Z,46.10
2018-09-06T13:41:18.456Z,43.45
2018-09-06T13:42:24.292Z,43.15
2018-09-06T13:43:30.362Z,44.23
2018-09-06T13:44:34.816Z,43.50
2018-09-06T13:46:07.349Z,44.13
2018-09-06T13:47:11.726Z,44.80
2018-09-06T13:48:16.187Z,45.20
2018-09-06T13:49:22.224Z,44.60
2018-09-06T13:50:26.511Z,43.05
2018-09-06T13:51:31.203Z,42.38
2018-09-06T13:52:36.664Z,44.42
2018-09-06T13:53:42.084Z,40.78
2018-09-06T13:54:47.023Z,44.58
2018-09-06T13:55:51.481Z,43.33
2018-09-06T13:56:56.237Z,43.98
2018-09-06T13:58:02.193Z,44.55
2018-09-06T13:59:08.667Z,45.38
2018-09-06T14:00:14.756Z,44.35
2018-09-06T14:01:20.092Z,45.90
2018-09-06T14:02:24.235Z,48.52
2018-09-06T14:03:29.177Z,46.95
2018-09-06T14:04:33.966Z,46.05
2018-09-06T14:05:38.273Z,46.92
2018-09-06T14:06:43.336Z,45.45
2018-09-06T14:07:48.648Z,44.85
2018-09-06T14:08:55.658Z,48.28
2018-09-06T14:10:00.576Z,42.98
2018-09-06T14:11:05.079Z,45.08
2018-09-06T14:12:10.216Z,45.58
2018-09-06T14:13:15.424Z,45.52
2018-09-06T14:14:26.444Z,40.80
2018-09-06T14:15:31.095Z,44.27
2018-09-06T14:16:38.955Z,45.63
2018-09-06T14:17:43.463Z,49.05
2018-09-06T14:18:47.762Z,46.18
2018-09-06T14:19:55.352Z,46.85
2018-09-06T14:20:59.732Z,46.58
2018-09-06T14:22:04.809Z,44.98